Time;durP1;ratioP1;P1;durP2;ratioP2;P2;SDS_P1;SDS_P2;PMS_P1;PMS_P2;Temp;Humidity;BMP_temperature;BMP_pressure;BME280_temperature;BME280_humidity;BME280_pressure;Samples;Min_cycle;Max_cycle;Signal;HPM_P1;HPM_P2
2021/08/02 00:02:04;;;;;;;6.17;3.37;;;;;;;12.56;100.00;95967.00;5077045;28;20036;-75
2021/08/02 00:04:39;;;;;;;7.73;4.00;;;;;;;12.55;100.00;95965.38;5083442;28;20038;-76
2021/08/02 00:07:10;;;;;;;6.63;3.00;;;;;;;12.55;100.00;95970.66;5056046;28;20068;-76
2021/08/02 00:09:37;;;;;;;5.97;3.40;;;;;;;12.55;100.00;95978.56;5052619;28;20135;-75
2021/08/02 00:12:16;;;;;;;5.23;3.57;;;;;;;12.53;100.00;95969.19;5060257;28;20039;-76
2021/08/02 00:14:42;;;;;;;7.33;3.70;;;;;;;12.53;100.00;95964.72;5068800;28;20040;-77
2021/08/02 00:17:08;;;;;;;6.80;3.57;;;;;;;12.53;100.00;95962.09;5076596;28;20117;-76
2021/08/02 00:19:34;;;;;;;5.10;3.07;;;;;;;12.53;100.00;95963.91;5081217;28;20111;-76
2021/08/02 00:22:01;;;;;;;8.47;3.60;;;;;;;12.53;100.00;95962.09;5069644;28;20036;-76
2021/08/02 00:24:29;;;;;;;6.23;3.40;;;;;;;12.46;100.00;95972.53;5058814;28;20044;-76
2021/08/02 00:26:56;;;;;;;5.53;3.43;;;;;;;12.36;100.00;95961.41;5070263;28;20761;-77
2021/08/02 00:29:23;;;;;;;9.03;3.37;;;;;;;12.41;100.00;95964.34;5073793;28;20028;-77
2021/08/02 00:31:49;;;;;;;9.60;3.27;;;;;;;12.36;100.00;95966.66;5082213;28;20115;-76
2021/08/02 00:34:15;;;;;;;7.43;3.30;;;;;;;12.39;100.00;95966.31;5067880;28;20064;-77
2021/08/02 00:36:53;;;;;;;6.10;3.10;;;;;;;12.33;100.00;95968.84;5064446;28;20029;-76
2021/08/02 00:39:49;;;;;;;7.20;3.47;;;;;;;12.38;100.00;95966.50;5069672;28;20086;-77
2021/08/02 00:42:31;;;;;;;4.77;2.87;;;;;;;12.25;100.00;95959.19;5069708;28;20745;-77
2021/08/02 00:45:09;;;;;;;5.43;3.30;;;;;;;12.30;100.00;95958.63;5070008;28;20036;-76
2021/08/02 00:47:40;;;;;;;7.40;3.43;;;;;;;12.31;100.00;95963.75;5077080;28;20562;-76
2021/08/02 00:50:12;;;;;;;8.23;3.47;;;;;;;12.24;100.00;95968.09;5068155;28;20028;-76
2021/08/02 00:52:59;;;;;;;7.63;3.80;;;;;;;12.21;100.00;95964.00;5075891;28;20028;-76
2021/08/02 00:55:28;;;;;;;5.77;3.53;;;;;;;12.17;100.00;95970.63;5069986;28;20033;-77
2021/08/02 00:57:57;;;;;;;4.10;2.90;;;;;;;12.26;100.00;95972.19;5075669;28;20039;-77
2021/08/02 01:00:23;;;;;;;7.10;3.03;;;;;;;12.29;100.00;95980.75;5081702;28;20016;-76
2021/08/02 01:02:54;;;;;;;5.60;3.50;;;;;;;12.22;100.00;95980.63;5074473;28;20029;-77
2021/08/02 01:05:21;;;;;;;6.97;3.50;;;;;;;12.30;100.00;95980.56;5074790;28;20028;-77
2021/08/02 01:07:56;;;;;;;8.93;4.03;;;;;;;12.32;100.00;95975.94;5053067;28;20104;-76
2021/08/02 01:10:24;;;;;;;7.60;4.70;;;;;;;12.33;100.00;95985.47;5094080;28;20036;-76
2021/08/02 01:12:53;;;;;;;7.57;3.67;;;;;;;12.36;100.00;95982.50;5073670;28;20040;-77
2021/08/02 01:15:21;;;;;;;6.57;3.20;;;;;;;12.34;100.00;95986.28;5064095;28;20059;-76
2021/08/02 01:17:48;;;;;;;6.60;3.50;;;;;;;12.40;100.00;95990.88;5071475;28;20036;-77
2021/08/02 01:20:15;;;;;;;5.73;3.47;;;;;;;12.42;100.00;95986.25;5076898;28;20697;-76
2021/08/02 01:22:46;;;;;;;7.63;3.57;;;;;;;12.54;100.00;95984.00;5075496;28;20028;-77
2021/08/02 01:25:33;;;;;;;8.60;3.80;;;;;;;12.49;100.00;95982.72;5075397;28;20037;-77
2021/08/02 01:28:14;;;;;;;9.57;3.50;;;;;;;12.52;100.00;95980.72;5077768;28;20020;-77
2021/08/02 01:30:49;;;;;;;7.37;3.53;;;;;;;12.61;100.00;95988.41;5081992;28;20039;-77
2021/08/02 01:33:17;;;;;;;6.87;3.47;;;;;;;12.61;100.00;95983.13;5077811;28;20024;-77
2021/08/02 01:35:44;;;;;;;7.77;3.53;;;;;;;12.63;100.00;95988.22;5059978;28;20426;-77
2021/08/02 01:38:15;;;;;;;4.63;3.23;;;;;;;12.69;100.00;95988.31;5079739;28;20008;-77
2021/08/02 01:40:41;;;;;;;7.57;3.80;;;;;;;12.74;100.00;95982.50;5071923;28;20028;-76
2021/08/02 01:43:08;;;;;;;6.70;3.77;;;;;;;12.69;100.00;95990.16;5077834;28;20397;-76
2021/08/02 01:45:57;;;;;;;6.10;3.47;;;;;;;12.64;100.00;95993.34;5060656;28;20040;-76
2021/08/02 01:48:49;;;;;;;6.47;3.20;;;;;;;12.62;100.00;95991.88;5049671;28;20425;-76
2021/08/02 01:51:49;;;;;;;6.10;3.37;;;;;;;12.64;100.00;95995.13;5083523;28;20036;-76
2021/08/02 01:54:40;;;;;;;12.03;3.70;;;;;;;12.64;100.00;95992.47;5074933;28;20493;-76
2021/08/02 01:57:13;;;;;;;8.60;3.23;;;;;;;12.63;100.00;95998.78;5049886;28;20033;-76
2021/08/02 02:00:14;;;;;;;7.57;3.70;;;;;;;12.63;100.00;95993.50;5077601;28;20431;-76
2021/08/02 02:02:53;;;;;;;6.03;3.13;;;;;;;12.68;100.00;95997.25;5071943;28;20044;-76
2021/08/02 02:05:28;;;;;;;7.57;3.30;;;;;;;12.68;100.00;95991.97;5067209;28;20024;-77
2021/08/02 02:08:07;;;;;;;6.30;3.22;;;;;;;12.69;100.00;95998.06;5066597;28;20039;-76
2021/08/02 02:10:39;;;;;;;8.03;3.20;;;;;;;12.62;100.00;95997.13;5057881;28;20490;-77
2021/08/02 02:13:29;;;;;;;8.90;3.77;;;;;;;12.60;100.00;95999.13;5075824;28;20616;-77
2021/08/02 02:15:58;;;;;;;8.30;3.40;;;;;;;12.56;100.00;95990.75;5059396;28;20261;-77
2021/08/02 02:18:27;;;;;;;7.73;3.00;;;;;;;12.59;100.00;95990.38;5063768;28;20024;-76
2021/08/02 02:20:54;;;;;;;7.07;3.23;;;;;;;12.51;100.00;95987.84;5071249;28;20040;-76
2021/08/02 02:23:23;;;;;;;6.87;3.50;;;;;;;12.58;100.00;95990.59;5071224;28;20016;-76
2021/08/02 02:25:50;;;;;;;7.50;3.60;;;;;;;12.45;100.00;95999.91;5070463;28;20032;-76
2021/08/02 02:28:20;;;;;;;6.40;3.53;;;;;;;12.42;100.00;95997.63;5052372;28;20123;-77
2021/08/02 02:30:51;;;;;;;7.67;3.13;;;;;;;12.46;100.00;95992.81;5072628;28;20039;-76
2021/08/02 02:33:18;;;;;;;7.40;3.00;;;;;;;12.49;100.00;96000.38;5076123;28;20090;-76
2021/08/02 02:35:46;;;;;;;6.23;3.30;;;;;;;12.45;100.00;95997.25;5070174;28;20028;-76
2021/08/02 02:38:15;;;;;;;5.60;3.00;;;;;;;12.53;100.00;95993.72;5067353;28;20040;-76
2021/08/02 02:40:44;;;;;;;8.63;3.30;;;;;;;12.49;100.00;95998.53;5084740;28;20072;-77
2021/08/02 02:43:15;;;;;;;5.87;3.03;;;;;;;12.36;100.00;95995.69;5075432;28;20021;-77
2021/08/02 02:45:44;;;;;;;8.43;3.90;;;;;;;12.40;100.00;96004.88;5078644;28;20136;-76
2021/08/02 02:48:12;;;;;;;7.40;3.53;;;;;;;12.44;100.00;96006.19;5061073;28;20032;-76
2021/08/02 02:50:41;;;;;;;7.53;3.20;;;;;;;12.37;100.00;95994.66;5078308;28;20033;-76
2021/08/02 02:53:07;;;;;;;7.40;3.40;;;;;;;12.44;100.00;95995.63;5060789;28;20111;-77
2021/08/02 02:55:34;;;;;;;7.10;3.37;;;;;;;12.37;100.00;96002.56;5055301;28;20809;-76
2021/08/02 02:58:02;;;;;;;6.77;3.40;;;;;;;12.44;100.00;96013.25;5061318;28;20052;-76
2021/08/02 03:00:30;;;;;;;5.13;3.00;;;;;;;12.44;100.00;96008.81;5073141;28;20074;-76
2021/08/02 03:02:59;;;;;;;8.83;3.40;;;;;;;12.47;100.00;96010.25;5069279;28;20116;-76
2021/08/02 03:05:28;;;;;;;6.67;3.20;;;;;;;12.47;100.00;96013.75;5076651;28;20073;-76
2021/08/02 03:07:59;;;;;;;5.70;2.93;;;;;;;12.50;100.00;96009.91;5090019;28;20117;-76
2021/08/02 03:10:27;;;;;;;5.13;3.10;;;;;;;12.56;100.00;96017.13;5078046;28;20028;-76
2021/08/02 03:12:56;;;;;;;6.23;3.30;;;;;;;12.55;100.00;96018.13;5070836;28;20024;-76
2021/08/02 03:15:22;;;;;;;6.27;2.93;;;;;;;12.55;100.00;96017.31;5068922;28;20035;-78
2021/08/02 03:17:48;;;;;;;6.93;3.50;;;;;;;12.58;100.00;96020.41;5069537;28;20024;-77
2021/08/02 03:20:15;;;;;;;6.57;3.20;;;;;;;12.56;100.00;96018.94;5077631;28;20858;-76
2021/08/02 03:22:46;;;;;;;10.47;3.07;;;;;;;12.57;100.00;96021.38;5055361;28;20023;-76
2021/08/02 03:25:34;;;;;;;6.03;3.57;;;;;;;12.55;100.00;96022.59;5077152;28;20156;-77
2021/08/02 03:28:30;;;;;;;6.43;2.90;;;;;;;12.54;100.00;96020.94;5057075;28;20052;-76
2021/08/02 03:30:58;;;;;;;4.63;3.10;;;;;;;12.59;100.00;96019.41;5077623;28;20497;-76
2021/08/02 03:33:30;;;;;;;8.60;4.07;;;;;;;12.60;100.00;96022.88;5078371;28;20024;-76
2021/08/02 03:36:00;;;;;;;6.10;3.33;;;;;;;12.58;100.00;96027.50;5069197;28;20404;-77
2021/08/02 03:38:28;;;;;;;5.60;2.70;;;;;;;12.58;100.00;96033.59;5075074;28;20480;-76
2021/08/02 03:40:55;;;;;;;7.40;3.37;;;;;;;12.58;100.00;96032.78;5085904;28;20032;-76
2021/08/02 03:43:21;;;;;;;7.83;3.37;;;;;;;12.55;100.00;96028.69;5071849;28;20024;-76
2021/08/02 03:45:48;;;;;;;6.77;3.03;;;;;;;12.56;100.00;96038.22;5084713;28;20505;-76
2021/08/02 03:48:14;;;;;;;7.70;3.90;;;;;;;12.52;100.00;96044.03;5078123;28;20036;-77
2021/08/02 03:50:40;;;;;;;6.30;3.47;;;;;;;12.51;100.00;96045.84;5075503;28;20031;-76
2021/08/02 03:53:06;;;;;;;7.40;3.53;;;;;;;12.52;100.00;96044.03;5076432;28;20044;-77
2021/08/02 03:55:34;;;;;;;6.63;2.77;;;;;;;12.52;100.00;96049.31;5072314;28;20032;-76
2021/08/02 03:58:00;;;;;;;4.83;2.97;;;;;;;12.54;100.00;96053.44;5076904;28;20633;-77
2021/08/02 04:00:26;;;;;;;4.93;3.03;;;;;;;12.56;100.00;96053.25;5073923;28;20126;-76
2021/08/02 04:02:52;;;;;;;5.13;2.77;;;;;;;12.61;100.00;96054.34;5078073;28;20028;-77
2021/08/02 04:05:18;;;;;;;8.63;3.40;;;;;;;12.62;100.00;96058.63;5081899;28;20031;-77
2021/08/02 04:07:45;;;;;;;5.07;2.87;;;;;;;12.56;100.00;96058.50;5081735;28;20032;-77
2021/08/02 04:10:12;;;;;;;5.83;3.10;;;;;;;12.60;100.00;96071.16;5079498;28;20035;-77
2021/08/02 04:12:39;;;;;;;8.20;4.73;;;;;;;12.60;100.00;96060.59;5087224;28;20020;-77
2021/08/02 04:15:08;;;;;;;6.50;2.93;;;;;;;12.66;100.00;96065.19;5063123;28;20509;-76
2021/08/02 04:17:36;;;;;;;5.13;2.63;;;;;;;12.61;100.00;96064.91;5077876;28;20151;-77
2021/08/02 04:20:04;;;;;;;6.00;2.97;;;;;;;12.65;100.00;96076.75;5060930;28;20037;-77
2021/08/02 04:22:30;;;;;;;6.83;2.77;;;;;;;12.75;100.00;96076.50;5050129;28;20113;-77
2021/08/02 04:24:56;;;;;;;7.07;3.30;;;;;;;12.78;100.00;96086.72;5070797;28;20122;-78
2021/08/02 04:27:23;;;;;;;5.57;3.80;;;;;;;12.76;100.00;96080.78;5065131;28;20024;-79
2021/08/02 04:29:49;;;;;;;6.87;3.03;;;;;;;12.73;100.00;96089.06;5076768;28;20086;-78
2021/08/02 04:32:14;;;;;;;3.93;2.67;;;;;;;12.71;100.00;96091.06;5062453;28;20016;-77
2021/08/02 04:34:40;;;;;;;8.37;3.30;;;;;;;12.73;100.00;96089.06;5084369;28;20055;-78
2021/08/02 04:37:06;;;;;;;9.23;3.27;;;;;;;12.78;100.00;96092.00;5079696;28;20039;-77
2021/08/02 04:39:32;;;;;;;10.87;3.47;;;;;;;12.80;100.00;96092.63;5057352;28;20068;-78
2021/08/02 04:41:57;;;;;;;8.47;3.20;;;;;;;12.88;100.00;96099.69;5083182;28;20020;-80
2021/08/02 04:44:23;;;;;;;6.20;3.43;;;;;;;12.89;100.00;96101.31;5068123;28;20035;-78
2021/08/02 04:46:49;;;;;;;6.43;3.13;;;;;;;12.95;100.00;96092.69;5076725;28;20684;-78
2021/08/02 04:49:15;;;;;;;8.93;3.37;;;;;;;12.95;100.00;96093.50;5075091;28;20597;-78
2021/08/02 04:51:41;;;;;;;6.53;3.20;;;;;;;12.96;100.00;96089.03;5059224;28;20090;-78
2021/08/02 04:54:07;;;;;;;7.17;3.07;;;;;;;12.94;100.00;96089.22;5075694;28;20568;-77
2021/08/02 04:56:33;;;;;;;5.50;2.83;;;;;;;12.97;100.00;96095.97;5081469;28;20078;-77
2021/08/02 04:58:58;;;;;;;7.80;4.23;;;;;;;13.06;100.00;96084.34;5077585;28;20029;-78
2021/08/02 05:01:24;;;;;;;5.37;3.43;;;;;;;13.07;100.00;96091.25;5078376;28;20028;-78
2021/08/02 05:03:50;;;;;;;6.40;3.33;;;;;;;13.17;100.00;96088.38;5063186;28;20059;-77
2021/08/02 05:06:16;;;;;;;4.73;2.70;;;;;;;13.19;100.00;96100.41;5081225;28;20536;-77
2021/08/02 05:08:41;;;;;;;6.67;2.73;;;;;;;13.24;100.00;96097.25;5068613;28;20058;-78
2021/08/02 05:11:07;;;;;;;6.07;3.43;;;;;;;13.29;100.00;96104.66;5078044;28;20039;-77
2021/08/02 05:13:34;;;;;;;6.53;2.97;;;;;;;13.25;100.00;96101.53;5078879;28;20093;-78
2021/08/02 05:15:59;;;;;;;5.90;2.83;;;;;;;13.37;100.00;96097.44;5076176;28;20020;-78
2021/08/02 05:18:25;;;;;;;8.40;2.97;;;;;;;13.26;100.00;96099.72;5071891;28;20037;-78
2021/08/02 05:20:51;;;;;;;6.10;2.80;;;;;;;13.32;100.00;96101.66;5064195;28;20067;-79
2021/08/02 05:23:17;;;;;;;7.53;3.00;;;;;;;13.33;100.00;96112.03;5078234;28;20150;-78
2021/08/02 05:25:43;;;;;;;5.47;2.80;;;;;;;13.35;100.00;96115.31;5080704;28;20032;-78
2021/08/02 05:28:09;;;;;;;4.67;2.93;;;;;;;13.35;100.00;96107.38;5077511;28;20035;-78
2021/08/02 05:30:34;;;;;;;6.40;3.73;;;;;;;13.47;100.00;96106.94;5058065;28;20033;-78
2021/08/02 05:33:00;;;;;;;8.53;3.30;;;;;;;13.42;100.00;96108.31;5074924;28;20631;-78
2021/08/02 05:35:26;;;;;;;5.40;2.67;;;;;;;13.43;100.00;96102.00;5076934;28;20032;-77
2021/08/02 05:37:53;;;;;;;4.13;2.70;;;;;;;13.44;100.00;96103.66;5067698;28;20037;-78
2021/08/02 05:40:20;;;;;;;6.43;2.70;;;;;;;13.44;100.00;96106.28;5082316;28;20035;-78
2021/08/02 05:42:46;;;;;;;5.13;3.07;;;;;;;13.59;100.00;96103.69;5064877;28;20478;-78
2021/08/02 05:45:13;;;;;;;5.40;2.67;;;;;;;13.61;100.00;96103.50;5077241;28;20069;-78
2021/08/02 05:47:39;;;;;;;5.40;2.30;;;;;;;13.62;100.00;96097.22;5081161;28;20067;-78
2021/08/02 05:50:06;;;;;;;8.63;3.10;;;;;;;13.60;100.00;96102.66;5074443;28;20032;-78
2021/08/02 05:52:32;;;;;;;4.97;2.80;;;;;;;13.61;100.00;96108.78;5079004;28;20041;-78
2021/08/02 05:54:58;;;;;;;6.03;3.00;;;;;;;13.74;100.00;96111.59;5081429;28;20028;-78
2021/08/02 05:57:24;;;;;;;5.73;2.90;;;;;;;13.76;100.00;96112.25;5078825;28;20036;-79
2021/08/02 05:59:50;;;;;;;6.53;3.07;;;;;;;13.70;100.00;96118.25;5080367;28;20068;-79
2021/08/02 06:02:16;;;;;;;6.23;2.80;;;;;;;13.77;100.00;96113.88;5075544;28;20032;-79
2021/08/02 06:04:42;;;;;;;5.83;2.77;;;;;;;13.81;100.00;96120.44;5069082;28;20385;-81
2021/08/02 06:07:08;;;;;;;7.27;3.37;;;;;;;13.91;100.00;96121.00;5067809;28;20111;-79
2021/08/02 06:09:33;;;;;;;6.77;2.73;;;;;;;14.07;100.00;96119.16;5083973;28;20485;-79
2021/08/02 06:12:01;;;;;;;5.17;2.80;;;;;;;14.08;100.00;96126.09;5072083;28;20051;-78
2021/08/02 06:14:26;;;;;;;6.17;2.80;;;;;;;14.12;100.00;96132.69;5084755;28;20028;-79
2021/08/02 06:16:52;;;;;;;4.37;2.50;;;;;;;14.26;100.00;96125.72;5061993;28;20012;-78
2021/08/02 06:19:18;;;;;;;7.20;3.90;;;;;;;14.06;100.00;96128.94;5064771;28;20040;-80
2021/08/02 06:21:43;;;;;;;4.95;2.92;;;;;;;14.15;100.00;96133.13;5065123;28;20016;-78
2021/08/02 06:24:09;;;;;;;6.23;3.33;;;;;;;14.14;100.00;96130.66;5059047;28;20031;-79
2021/08/02 06:26:36;;;;;;;4.80;2.87;;;;;;;14.14;100.00;96133.28;5081865;28;20032;-78
2021/08/02 06:29:02;;;;;;;5.27;2.80;;;;;;;14.27;100.00;96132.66;5081579;28;20816;-79
2021/08/02 06:31:28;;;;;;;5.13;2.30;;;;;;;14.52;99.93;96141.09;5058202;28;20081;-79
2021/08/02 06:33:54;;;;;;;6.22;2.60;;;;;;;14.47;98.99;96132.88;5085890;28;20062;-78
2021/08/02 06:36:21;;;;;;;6.03;2.63;;;;;;;14.46;99.09;96141.84;5060145;28;20150;-78
2021/08/02 06:38:47;;;;;;;4.65;2.40;;;;;;;14.48;98.50;96142.47;5072687;28;20066;-78
2021/08/02 06:41:14;;;;;;;5.03;2.53;;;;;;;14.50;97.24;96143.94;5064552;28;20039;-79
2021/08/02 06:43:40;;;;;;;7.43;2.50;;;;;;;14.51;97.28;96135.00;5081783;28;20469;-79
2021/08/02 06:46:07;;;;;;;3.13;2.10;;;;;;;14.59;97.62;96145.50;5064017;28;20039;-79
2021/08/02 06:48:33;;;;;;;5.72;2.45;;;;;;;14.55;96.61;96143.38;5075191;28;20025;-78
2021/08/02 06:51:00;;;;;;;4.93;2.37;;;;;;;14.57;96.56;96146.69;5074721;28;20036;-80
2021/08/02 06:53:25;;;;;;;5.45;2.60;;;;;;;14.56;96.80;96145.84;5077375;28;20029;-79
2021/08/02 06:55:51;;;;;;;5.90;2.92;;;;;;;14.69;96.33;96152.28;5073411;28;21372;-78
2021/08/02 06:58:17;;;;;;;5.68;2.63;;;;;;;14.66;96.19;96144.75;5057590;28;20036;-79
2021/08/02 07:00:43;;;;;;;6.05;2.45;;;;;;;14.60;96.09;96147.13;5074197;28;20017;-79
2021/08/02 07:03:09;;;;;;;3.90;2.35;;;;;;;14.66;95.22;96142.91;5065108;28;20039;-79
2021/08/02 07:05:35;;;;;;;6.00;2.55;;;;;;;14.66;95.44;96147.41;5081622;28;20036;-79
2021/08/02 07:08:00;;;;;;;4.60;3.20;;;;;;;14.72;95.54;96150.13;5076767;28;20020;-79
2021/08/02 07:10:26;;;;;;;6.90;2.70;;;;;;;14.79;94.70;96148.34;5072504;28;20032;-78
2021/08/02 07:12:52;;;;;;;8.75;2.15;;;;;;;14.83;94.98;96146.97;5054203;28;20071;-79
2021/08/02 07:15:17;;;;;;;3.50;2.42;;;;;;;14.84;94.41;96145.94;5085780;28;20111;-80
2021/08/02 07:17:43;;;;;;;4.40;2.55;;;;;;;14.79;95.00;96139.59;5082256;28;20031;-79
2021/08/02 07:20:09;;;;;;;3.80;2.20;;;;;;;14.79;95.08;96144.91;5079299;28;20041;-79
2021/08/02 07:22:35;;;;;;;6.40;2.40;;;;;;;14.83;94.42;96146.97;5083943;28;20063;-79
2021/08/02 07:25:01;;;;;;;7.50;2.70;;;;;;;14.88;93.72;96150.88;5070704;28;20051;-78
2021/08/02 07:27:27;;;;;;;5.55;2.20;;;;;;;14.90;93.99;96147.03;5071837;28;20189;-78
2021/08/02 07:29:52;;;;;;;4.32;2.15;;;;;;;14.95;93.87;96143.81;5071313;28;20039;-79
2021/08/02 07:32:18;;;;;;;7.32;2.97;;;;;;;15.05;94.89;96144.31;5084452;28;20036;-79
2021/08/02 07:34:44;;;;;;;4.55;2.13;;;;;;;15.11;94.30;96148.88;5062949;28;20070;-79
2021/08/02 07:37:10;;;;;;;5.88;2.53;;;;;;;14.90;94.14;96140.94;5055825;28;20029;-79
2021/08/02 07:39:35;;;;;;;4.68;2.38;;;;;;;15.07;94.87;96147.59;5057873;28;20039;-79
2021/08/02 07:42:01;;;;;;;3.45;2.05;;;;;;;15.04;93.26;96148.81;5073722;28;20052;-80
2021/08/02 07:44:27;;;;;;;4.63;1.88;;;;;;;15.14;93.41;96143.19;5074653;28;20024;-79
2021/08/02 07:46:53;;;;;;;4.80;2.53;;;;;;;15.28;92.71;96144.94;5083367;28;20027;-79
2021/08/02 07:49:18;;;;;;;6.78;2.55;;;;;;;15.11;92.92;96146.22;5065687;28;20047;-79
2021/08/02 07:51:44;;;;;;;4.68;2.33;;;;;;;15.32;93.35;96145.38;5083099;28;20685;-79
2021/08/02 07:54:11;;;;;;;4.63;2.25;;;;;;;15.28;93.22;96154.72;5071241;28;20039;-79
2021/08/02 07:56:38;;;;;;;5.70;2.42;;;;;;;15.12;92.81;96144.38;5074770;28;20029;-80
2021/08/02 07:59:04;;;;;;;6.38;2.63;;;;;;;15.27;92.73;96145.16;5079894;28;20098;-78
2021/08/02 08:01:30;;;;;;;4.30;2.30;;;;;;;15.31;93.37;96149.84;5074291;28;20063;-79
2021/08/02 08:03:56;;;;;;;4.95;2.45;;;;;;;15.57;92.49;96154.56;5054538;28;20028;-79
2021/08/02 08:06:21;;;;;;;8.13;2.55;;;;;;;15.54;91.63;96149.63;5073445;28;20037;-79
2021/08/02 08:08:47;;;;;;;6.35;2.10;;;;;;;15.60;91.05;96153.38;5056128;28;20166;-79
2021/08/02 08:11:13;;;;;;;5.93;2.33;;;;;;;15.51;90.82;96157.97;5077570;28;20067;-79
2021/08/02 08:13:39;;;;;;;4.45;2.25;;;;;;;15.50;89.18;96156.34;5080953;28;20115;-79
2021/08/02 08:16:06;;;;;;;14.07;4.93;;;;;;;15.41;88.25;96157.50;5089172;28;20451;-79
2021/08/02 08:18:32;;;;;;;6.43;2.08;;;;;;;15.53;88.63;96155.16;5088445;28;20032;-78
2021/08/02 08:20:59;;;;;;;4.13;2.03;;;;;;;15.63;88.82;96160.94;5059004;28;20059;-79
2021/08/02 08:23:31;;;;;;;4.55;1.98;;;;;;;15.75;88.57;96151.44;5071118;28;20391;-79
2021/08/02 08:25:58;;;;;;;5.53;2.28;;;;;;;15.86;87.28;96154.56;5088468;28;20028;-79
2021/08/02 08:28:24;;;;;;;5.32;2.03;;;;;;;15.85;86.88;96158.25;5066051;28;20024;-78
2021/08/02 08:30:49;;;;;;;5.47;2.35;;;;;;;16.05;85.43;96153.06;5076238;28;20047;-78
2021/08/02 08:33:15;;;;;;;4.13;1.88;;;;;;;16.10;85.10;96150.66;5060771;28;20077;-79
2021/08/02 08:35:41;;;;;;;5.15;2.15;;;;;;;16.39;83.34;96153.03;5072493;28;20072;-79
2021/08/02 08:38:08;;;;;;;5.15;2.25;;;;;;;16.73;82.77;96149.50;5057900;28;20058;-79
2021/08/02 08:40:35;;;;;;;3.60;2.08;;;;;;;16.78;82.13;96156.91;5076363;28;20029;-79
2021/08/02 08:43:06;;;;;;;5.03;1.90;;;;;;;17.38;80.74;96151.69;5055583;28;20085;-79
2021/08/02 08:45:31;;;;;;;4.13;1.50;;;;;;;17.50;77.95;96150.03;5061885;28;20036;-78
2021/08/02 08:47:58;;;;;;;3.67;1.48;;;;;;;17.33;79.79;96146.97;5063354;28;20053;-79
2021/08/02 08:50:25;;;;;;;4.95;2.38;;;;;;;17.87;77.67;96155.78;5065384;28;20035;-79
2021/08/02 08:52:55;;;;;;;6.13;2.30;;;;;;;18.11;76.92;96147.16;5075675;28;20056;-79
2021/08/02 08:55:22;;;;;;;5.40;1.73;;;;;;;17.87;77.35;96156.63;5051450;28;20056;-79
2021/08/02 08:57:48;;;;;;;4.80;2.10;;;;;;;17.98;76.12;96155.16;5068973;28;20028;-79
2021/08/02 09:00:25;;;;;;;4.13;2.00;;;;;;;17.87;76.80;96153.13;5075788;28;20111;-79
2021/08/02 09:02:53;;;;;;;6.75;2.88;;;;;;;18.14;74.75;96152.06;5078309;28;20062;-79
2021/08/02 09:05:19;;;;;;;8.23;3.13;;;;;;;18.39;73.21;96143.38;5069081;28;20264;-79
2021/08/02 09:07:46;;;;;;;4.13;1.77;;;;;;;18.88;73.01;96141.13;5069795;28;20033;-79
2021/08/02 09:10:17;;;;;;;7.50;2.08;;;;;;;18.76;71.89;96143.66;5080171;28;20033;-79
2021/08/02 09:12:51;;;;;;;2.40;1.40;;;;;;;18.82;70.35;96148.97;5054540;28;20124;-79
2021/08/02 09:15:18;;;;;;;5.03;2.05;;;;;;;18.95;70.01;96141.94;5085100;28;20036;-78
2021/08/02 09:17:43;;;;;;;5.57;1.60;;;;;;;19.04;70.81;96146.78;5078756;28;20032;-80
2021/08/02 09:20:21;;;;;;;3.53;1.45;;;;;;;19.11;71.04;96145.94;5071663;28;20480;-79
2021/08/02 09:22:48;;;;;;;5.13;1.90;;;;;;;19.47;69.18;96146.06;5054933;28;20366;-79
2021/08/02 09:25:21;;;;;;;6.03;2.55;;;;;;;20.07;66.12;96152.78;5070621;28;20690;-79
2021/08/02 09:27:49;;;;;;;7.05;2.38;;;;;;;19.61;69.57;96148.63;5072784;28;20043;-80
2021/08/02 09:30:16;;;;;;;3.85;1.80;;;;;;;20.35;66.12;96144.25;5068747;28;20032;-80
2021/08/02 09:32:48;;;;;;;4.20;1.90;;;;;;;20.71;65.66;96146.13;5056154;28;20067;-79
2021/08/02 09:35:28;;;;;;;8.98;3.28;;;;;;;21.91;59.73;96139.00;5074266;28;20105;-79
2021/08/02 09:38:00;;;;;;;5.20;1.60;;;;;;;22.14;58.24;96139.00;5074400;28;20033;-79
2021/08/02 09:40:27;;;;;;;5.25;1.88;;;;;;;22.45;57.35;96137.81;5054422;28;20044;-80
2021/08/02 09:42:58;;;;;;;2.78;1.40;;;;;;;23.78;53.28;96131.41;5073238;28;20239;-80
2021/08/02 09:45:25;;;;;;;2.83;1.35;;;;;;;22.86;56.98;96137.78;5087282;28;20119;-79
2021/08/02 09:47:51;;;;;;;5.10;2.13;;;;;;;22.26;57.87;96142.47;5070840;28;20385;-80
2021/08/02 09:50:28;;;;;;;2.70;1.40;;;;;;;22.36;56.83;96141.88;5082142;28;20509;-80
2021/08/02 09:52:54;;;;;;;3.42;1.48;;;;;;;23.67;51.80;96131.19;5072499;28;20471;-80
2021/08/02 09:55:22;;;;;;;3.70;1.52;;;;;;;24.25;51.37;96131.81;5068958;28;20027;-80
2021/08/02 09:57:51;;;;;;;4.90;2.05;;;;;;;23.15;51.90;96133.28;5078084;28;20024;-81
2021/08/02 10:00:18;;;;;;;4.40;1.50;;;;;;;23.64;51.43;96134.41;5076983;28;20071;-79
2021/08/02 10:02:49;;;;;;;1.80;1.10;;;;;;;24.52;51.65;96125.75;5080228;28;20007;-79
2021/08/02 10:05:16;;;;;;;4.00;1.83;;;;;;;24.00;49.99;96125.00;5083149;28;20033;-82
2021/08/02 10:07:46;;;;;;;3.40;1.65;;;;;;;22.82;54.40;96129.41;5079015;28;20089;-80
2021/08/02 10:10:13;;;;;;;4.25;1.70;;;;;;;23.10;53.76;96120.56;5057923;28;20699;-80
2021/08/02 10:12:41;;;;;;;3.65;1.85;;;;;;;21.65;57.31;96127.69;5059680;28;20610;-81
2021/08/02 10:15:13;;;;;;;3.92;1.55;;;;;;;23.38;52.52;96110.88;5075772;28;20040;-80
2021/08/02 10:17:45;;;;;;;4.63;2.05;;;;;;;23.08;52.44;96116.53;5072799;28;20029;-80
2021/08/02 10:20:28;;;;;;;4.97;1.53;;;;;;;23.74;50.26;96113.09;5051784;28;20032;-80
2021/08/02 10:22:54;;;;;;;;;;;;;;;25.44;46.82;96106.00;5073918;28;20040;-80
2021/08/02 10:25:50;;;;;;;4.32;1.27;;;;;;;23.32;50.84;96111.84;5064723;28;20006;-80
2021/08/02 10:28:18;;;;;;;4.78;1.45;;;;;;;24.09;48.04;96101.25;5064838;28;20048;-80
2021/08/02 10:30:48;;;;;;;3.50;1.40;;;;;;;25.25;46.14;96102.06;5087465;28;20025;-80
2021/08/02 10:33:14;;;;;;;2.17;1.20;;;;;;;25.30;47.09;96099.44;5066336;28;20029;-80
2021/08/02 10:35:45;;;;;;;2.78;1.40;;;;;;;24.49;47.92;96093.97;5063459;28;20062;-81
2021/08/02 10:38:17;;;;;;;2.58;1.23;;;;;;;25.20;47.09;96102.03;5069905;28;20025;-80
2021/08/02 10:40:56;;;;;;;3.20;1.52;;;;;;;25.00;45.68;96091.84;5064031;28;20074;-80
2021/08/02 10:43:33;;;;;;;3.85;1.17;;;;;;;24.92;48.13;96087.75;5048423;28;20119;-81
2021/08/02 10:46:16;;;;;;;2.05;0.98;;;;;;;25.22;45.07;96092.63;5051171;28;20029;-80
2021/08/02 10:48:42;;;;;;;;;;;;;;;24.36;44.29;96089.75;5066930;28;20109;-79
2021/08/02 10:51:19;;;;;;;2.08;1.05;;;;;;;25.20;45.29;96083.19;5070205;28;19916;-79
2021/08/02 10:53:58;;;;;;;3.00;1.27;;;;;;;25.83;44.08;96076.16;5060764;28;20052;-79
2021/08/02 10:56:29;;;;;;;2.83;0.90;;;;;;;24.73;44.42;96068.44;5066298;28;20047;-79
2021/08/02 10:58:56;;;;;;;2.35;1.25;;;;;;;25.36;42.95;96071.50;5061146;28;20551;-80
2021/08/02 11:01:26;;;;;;;2.92;1.10;;;;;;;25.13;43.06;96072.63;5073899;28;20056;-80
2021/08/02 11:03:53;;;;;;;2.15;1.20;;;;;;;26.73;40.96;96063.41;5068018;28;20043;-80
2021/08/02 11:06:18;;;;;;;2.72;1.10;;;;;;;25.66;41.11;96064.72;5077335;28;20035;-79
2021/08/02 11:08:55;;;;;;;3.67;1.30;;;;;;;24.83;41.80;96067.75;5074087;28;20040;-81
2021/08/02 11:11:26;;;;;;;2.30;1.00;;;;;;;23.43;47.80;96070.69;5066321;28;20043;-80
2021/08/02 11:14:14;;;;;;;3.63;1.27;;;;;;;24.60;43.93;96055.38;5061630;28;20071;-80
2021/08/02 11:16:48;;;;;;;3.00;1.23;;;;;;;22.81;45.71;96058.09;5066437;28;20111;-79
2021/08/02 11:19:21;;;;;;;3.03;1.25;;;;;;;23.16;47.58;96060.59;5055301;28;20044;-81
2021/08/02 11:21:57;;;;;;;3.10;1.30;;;;;;;22.90;47.62;96064.66;5068486;28;20028;-80
2021/08/02 11:24:24;;;;;;;2.40;1.13;;;;;;;22.71;47.77;96064.06;5079793;28;20036;-80
2021/08/02 11:26:53;;;;;;;5.15;1.25;;;;;;;23.82;47.51;96063.53;5074869;28;20687;-79
2021/08/02 11:29:24;;;;;;;2.28;1.08;;;;;;;24.80;45.23;96052.09;5078608;28;20089;-80
2021/08/02 11:32:04;;;;;;;1.42;1.00;;;;;;;25.50;42.30;96056.53;5070921;28;20028;-79
2021/08/02 11:34:30;;;;;;;2.38;1.30;;;;;;;24.56;43.82;96056.97;5085823;28;20042;-80
2021/08/02 11:37:03;;;;;;;2.55;1.00;;;;;;;23.72;44.44;96064.19;5064111;28;20047;-80
2021/08/02 11:39:30;;;;;;;4.65;1.40;;;;;;;25.32;45.67;96062.31;5064639;28;20036;-80